createdAt,value
2022-11-05T00:01:02.414Z,2.10
2022-11-05T00:03:47.983Z,2.27
2022-11-05T00:06:33.662Z,2.30
2022-11-05T00:09:18.944Z,2.20
2022-11-05T00:12:04.512Z,1.50
2022-11-05T00:14:49.941Z,1.77
2022-11-05T00:17:16.687Z,1.37
2022-11-05T00:19:43.362Z,1.53
2022-11-05T00:22:28.636Z,1.00
2022-11-05T00:25:14.131Z,1.30
2022-11-05T00:28:40.911Z,1.90
2022-11-05T00:31:27.579Z,1.20
2022-11-05T00:33:54.448Z,1.00
2022-11-05T00:36:21.162Z,1.27
2022-11-05T00:39:47.641Z,1.10
2022-11-05T00:42:49.968Z,1.70
2022-11-05T00:45:16.962Z,1.50
2022-11-05T00:48:02.152Z,1.30
2022-11-05T00:54:19.430Z,1.00
2022-11-05T00:57:45.871Z,1.57
2022-11-05T01:00:13.247Z,0.80
2022-11-05T01:03:39.667Z,1.17
2022-11-05T01:06:17.875Z,1.10
2022-11-05T01:08:46.170Z,2.17
2022-11-05T01:11:34.297Z,1.30
2022-11-05T01:14:12.603Z,1.53
2022-11-05T01:16:41.853Z,1.43
2022-11-05T01:19:10.626Z,1.37
2022-11-05T01:21:37.650Z,1.13
2022-11-05T01:24:05.094Z,2.23
2022-11-05T01:26:31.987Z,1.63
2022-11-05T01:29:01.830Z,1.57
2022-11-05T01:31:44.355Z,1.40
2022-11-05T01:34:11.006Z,1.88
2022-11-05T01:36:37.639Z,1.43
2022-11-05T01:39:04.444Z,1.93
2022-11-05T01:41:31.273Z,1.60
2022-11-05T01:44:00.003Z,1.63
2022-11-05T01:47:38.726Z,1.97
2022-11-05T01:50:58.858Z,1.43
2022-11-05T01:53:41.129Z,1.50
2022-11-05T01:56:24.179Z,1.60
2022-11-05T01:58:57.231Z,1.40
2022-11-05T02:01:24.814Z,1.20
2022-11-05T02:03:55.330Z,1.43
2022-11-05T02:06:22.354Z,1.50
2022-11-05T02:10:00.920Z,1.40
2022-11-05T02:13:16.008Z,1.30
2022-11-05T02:16:54.374Z,1.73
2022-11-05T02:20:09.617Z,1.00
2022-11-05T02:23:14.362Z,1.57
2022-11-05T02:26:16.882Z,1.37
2022-11-05T02:33:17.736Z,1.00
2022-11-05T02:36:16.175Z,0.90
2022-11-05T02:39:31.680Z,1.23
2022-11-05T02:43:01.555Z,0.97
2022-11-05T02:45:52.808Z,0.90
2022-11-05T02:52:12.229Z,0.57
2022-11-05T02:55:38.698Z,1.07
2022-11-05T02:59:05.156Z,0.70
2022-11-05T03:02:31.744Z,0.90
2022-11-05T03:09:30.865Z,0.90
2022-11-05T03:12:36.029Z,0.77
2022-11-05T03:18:09.793Z,0.70
2022-11-05T03:20:52.183Z,0.60
2022-11-05T03:23:28.085Z,0.73
2022-11-05T03:26:20.598Z,0.77
2022-11-05T03:29:26.718Z,0.50
2022-11-05T03:31:57.588Z,0.90
2022-11-05T03:34:35.857Z,0.70
2022-11-05T03:37:04.661Z,1.17
2022-11-05T03:39:41.422Z,1.40
2022-11-05T03:42:13.068Z,0.60
2022-11-05T03:44:44.667Z,0.87
2022-11-05T03:47:17.369Z,0.60
2022-11-05T03:49:55.941Z,1.60
2022-11-05T03:52:28.304Z,1.43
2022-11-05T03:54:55.108Z,0.90
2022-11-05T03:57:30.380Z,0.63
2022-11-05T03:59:57.660Z,0.70
2022-11-05T04:02:26.831Z,0.53
2022-11-05T04:04:54.593Z,0.83
2022-11-05T04:07:40.015Z,0.90
2022-11-05T04:10:25.515Z,0.80
2022-11-05T04:13:52.069Z,0.97
2022-11-05T04:17:27.482Z,0.63
2022-11-05T04:24:36.807Z,0.93
2022-11-05T04:28:03.239Z,0.70
2022-11-05T04:31:30.242Z,0.70
2022-11-05T04:34:56.674Z,0.40
2022-11-05T04:41:18.051Z,0.93
2022-11-05T04:43:45.090Z,0.80
2022-11-05T04:46:11.811Z,0.80
2022-11-05T04:48:38.934Z,0.80
2022-11-05T04:51:06.082Z,1.00
2022-11-05T04:53:32.796Z,1.00
2022-11-05T04:56:15.132Z,0.80
2022-11-05T04:58:42.471Z,0.60
2022-11-05T05:01:27.190Z,0.80
2022-11-05T05:03:54.591Z,0.63
2022-11-05T05:06:21.907Z,0.60
2022-11-05T05:08:50.047Z,0.83
2022-11-05T05:12:16.471Z,0.60
2022-11-05T05:15:43.027Z,0.67
2022-11-05T05:19:09.492Z,0.80
2022-11-05T05:22:35.930Z,0.60
2022-11-05T05:25:03.419Z,0.57
2022-11-05T05:27:30.481Z,0.63
2022-11-05T05:29:58.008Z,0.80
2022-11-05T05:32:25.705Z,1.13
2022-11-05T05:34:52.797Z,0.50
2022-11-05T05:37:19.986Z,0.50
2022-11-05T05:39:47.902Z,0.83
2022-11-05T05:42:14.712Z,0.90
2022-11-05T05:44:41.490Z,0.97
2022-11-05T05:47:08.198Z,0.63
2022-11-05T05:49:34.979Z,0.70
2022-11-05T05:52:01.967Z,0.70
2022-11-05T05:54:32.305Z,0.60
2022-11-05T05:57:00.253Z,0.53
2022-11-05T05:59:26.941Z,0.40
2022-11-05T06:01:53.832Z,0.40
2022-11-05T06:04:20.804Z,0.50
2022-11-05T06:06:47.589Z,0.70
2022-11-05T06:09:15.016Z,0.60
2022-11-05T06:11:41.850Z,0.50
2022-11-05T06:14:13.087Z,0.50
2022-11-05T06:16:40.442Z,0.50
2022-11-05T06:19:07.857Z,0.47
2022-11-05T06:21:34.762Z,0.40
2022-11-05T06:24:02.858Z,0.30
2022-11-05T06:26:30.016Z,0.50
2022-11-05T06:28:57.160Z,1.20
2022-11-05T06:31:24.227Z,0.80
2022-11-05T06:33:50.953Z,0.40
2022-11-05T06:36:19.553Z,0.30
2022-11-05T06:38:46.864Z,0.30
2022-11-05T06:41:13.830Z,0.40
2022-11-05T06:43:40.849Z,0.30
2022-11-05T06:46:07.528Z,0.30
2022-11-05T06:48:34.346Z,0.20
2022-11-05T06:51:01.219Z,0.20
2022-11-05T06:53:28.286Z,0.30
2022-11-05T06:55:55.092Z,0.20
2022-11-05T06:58:21.848Z,0.37
2022-11-05T07:00:48.916Z,0.20
2022-11-05T07:03:16.038Z,0.40
2022-11-05T07:05:46.775Z,0.30
2022-11-05T07:08:14.297Z,0.20
2022-11-05T07:10:40.970Z,0.20
2022-11-05T07:13:08.737Z,0.20
2022-11-05T07:15:37.324Z,0.20
2022-11-05T07:18:04.794Z,0.20
2022-11-05T07:20:34.221Z,0.20
2022-11-05T07:23:12.770Z,0.20
2022-11-05T07:25:40.891Z,0.20
2022-11-05T07:28:08.437Z,0.40
2022-11-05T07:30:36.117Z,0.20
2022-11-05T07:33:04.106Z,0.23
2022-11-05T07:35:30.905Z,0.20
2022-11-05T07:37:57.630Z,0.20
2022-11-05T07:40:26.280Z,0.30
2022-11-05T07:42:55.407Z,0.30
2022-11-05T07:45:22.995Z,0.30
2022-11-05T07:48:00.987Z,0.30
2022-11-05T07:50:31.204Z,0.30
2022-11-05T07:53:05.680Z,0.20
2022-11-05T07:55:34.192Z,0.30
2022-11-05T07:58:00.939Z,0.27
2022-11-05T08:00:29.333Z,0.20
2022-11-05T08:03:08.893Z,0.20
2022-11-05T08:05:38.643Z,0.20
2022-11-05T08:08:07.144Z,0.20
2022-11-05T08:10:34.485Z,0.30
2022-11-05T08:13:01.276Z,0.20
2022-11-05T08:15:28.034Z,0.27
2022-11-05T08:18:03.358Z,0.27
2022-11-05T08:20:30.832Z,0.30
2022-11-05T08:22:57.710Z,0.30
2022-11-05T08:25:25.206Z,0.30
2022-11-05T08:27:59.751Z,0.30
2022-11-05T08:30:27.186Z,0.30
2022-11-05T08:33:02.490Z,0.23
2022-11-05T08:40:21.491Z,0.30
2022-11-05T08:43:47.889Z,0.30
2022-11-05T08:46:14.548Z,0.20
2022-11-05T08:48:41.243Z,0.30
2022-11-05T08:51:07.927Z,0.30
2022-11-05T08:53:34.671Z,0.30
2022-11-05T08:56:01.369Z,0.40
2022-11-05T08:58:28.146Z,0.30
2022-11-05T09:00:59.026Z,0.30
2022-11-05T09:03:29.062Z,0.40
2022-11-05T09:05:55.724Z,0.50
2022-11-05T09:08:22.326Z,0.50
2022-11-05T09:10:50.046Z,0.40
2022-11-05T09:13:19.783Z,0.30
2022-11-05T09:15:48.893Z,0.40
2022-11-05T09:18:16.920Z,0.30
2022-11-05T09:20:43.921Z,0.40
2022-11-05T09:23:12.107Z,0.23
2022-11-05T09:25:39.161Z,0.30
2022-11-05T09:28:16.829Z,0.40
2022-11-05T09:30:47.168Z,0.40
2022-11-05T09:33:14.986Z,0.40
2022-11-05T09:35:42.007Z,0.37
2022-11-05T09:38:09.245Z,0.30
2022-11-05T09:40:43.441Z,0.33
2022-11-05T09:43:21.720Z,0.30
2022-11-05T09:45:53.414Z,0.30
2022-11-05T09:48:24.770Z,0.30
2022-11-05T09:50:52.946Z,0.30
2022-11-05T09:53:22.242Z,0.33
2022-11-05T09:55:53.390Z,0.47
2022-11-05T09:58:47.234Z,0.43
2022-11-05T10:01:30.214Z,0.60
2022-11-05T10:04:01.369Z,0.33
2022-11-05T10:06:28.444Z,3.43
2022-11-05T10:09:03.856Z,1.00
2022-11-05T10:11:47.113Z,1.50
2022-11-05T10:14:40.540Z,2.07
2022-11-05T10:17:27.505Z,2.20
2022-11-05T10:20:03.354Z,3.47
2022-11-05T10:22:30.090Z,2.30
2022-11-05T10:24:56.989Z,2.17
2022-11-05T10:27:27.995Z,2.00
2022-11-05T10:29:55.206Z,3.03
2022-11-05T10:32:35.612Z,2.10
2022-11-05T10:35:05.683Z,2.93
2022-11-05T10:37:37.024Z,3.37
2022-11-05T10:40:32.734Z,3.03
2022-11-05T10:43:06.088Z,2.90
2022-11-05T10:45:44.470Z,2.03
2022-11-05T10:48:44.094Z,3.50
2022-11-05T10:51:11.861Z,2.30
2022-11-05T10:53:39.941Z,2.80
2022-11-05T11:00:35.412Z,4.30
2022-11-05T11:04:08.054Z,2.47
2022-11-05T11:11:11.472Z,2.47
2022-11-05T11:14:17.018Z,3.33
2022-11-05T11:17:55.448Z,3.03
2022-11-05T11:21:38.329Z,3.97
2022-11-05T11:25:05.095Z,3.53
2022-11-05T11:28:31.519Z,3.90
2022-11-05T11:35:35.893Z,4.70
2022-11-05T11:39:02.311Z,2.53
2022-11-05T11:46:30.588Z,2.43
2022-11-05T11:50:12.420Z,2.90
2022-11-05T11:53:54.088Z,3.07
2022-11-05T11:57:23.147Z,2.77
2022-11-05T12:00:22.560Z,4.77
2022-11-05T12:03:01.608Z,2.57
2022-11-05T12:05:52.914Z,3.17
2022-11-05T12:08:31.385Z,4.70
2022-11-05T12:11:03.229Z,3.23
2022-11-05T12:13:56.025Z,4.35
2022-11-05T12:16:52.037Z,2.20
2022-11-05T12:19:27.623Z,3.60
2022-11-05T12:22:09.965Z,2.57
2022-11-05T12:24:39.409Z,2.85
2022-11-05T12:27:21.329Z,3.17
2022-11-05T12:29:57.652Z,3.00
2022-11-05T12:32:36.633Z,2.97
2022-11-05T12:35:06.750Z,2.87
2022-11-05T12:37:42.874Z,3.07
2022-11-05T12:40:29.436Z,2.57
2022-11-05T12:43:12.291Z,3.27
2022-11-05T12:46:00.702Z,2.53
2022-11-05T12:48:53.287Z,2.10
2022-11-05T12:51:41.567Z,2.58
2022-11-05T12:55:05.637Z,2.90
2022-11-05T12:57:36.454Z,2.90
2022-11-05T13:00:20.744Z,2.93
2022-11-05T13:03:33.754Z,3.47
2022-11-05T13:06:09.876Z,2.83
2022-11-05T13:08:39.209Z,2.67
2022-11-05T13:11:29.239Z,1.93
2022-11-05T13:14:08.522Z,2.70
2022-11-05T13:16:43.474Z,2.13
2022-11-05T13:19:32.587Z,2.97
2022-11-05T13:22:34.665Z,2.47
2022-11-05T13:25:10.763Z,2.33
2022-11-05T13:27:52.952Z,2.60
2022-11-05T13:30:31.733Z,2.55
2022-11-05T13:33:05.077Z,2.33
2022-11-05T13:35:44.383Z,2.30
2022-11-05T13:38:39.931Z,2.57
2022-11-05T13:41:18.758Z,2.93
2022-11-05T13:44:19.766Z,2.33
2022-11-05T13:47:26.833Z,2.37
2022-11-05T13:50:12.316Z,3.03
2022-11-05T13:53:09.182Z,2.90
2022-11-05T13:55:51.326Z,3.13
2022-11-05T13:58:37.281Z,3.17
2022-11-05T14:01:42.321Z,3.23
2022-11-05T14:04:35.547Z,2.83
2022-11-05T14:07:12.893Z,2.58
2022-11-05T14:09:41.635Z,3.20
2022-11-05T14:12:20.258Z,3.33
2022-11-05T14:14:58.419Z,2.63
2022-11-05T14:17:34.244Z,2.30
2022-11-05T14:20:06.776Z,2.90
2022-11-05T14:22:33.428Z,2.92
2022-11-05T14:25:01.664Z,3.27
2022-11-05T14:27:37.377Z,2.53
2022-11-05T14:30:42.874Z,2.43
2022-11-05T14:33:38.140Z,2.73
2022-11-05T14:36:36.025Z,2.50
2022-11-05T14:39:19.681Z,2.43
2022-11-05T14:42:02.746Z,2.83
2022-11-05T14:47:06.171Z,3.93
2022-11-05T14:49:37.619Z,2.10
2022-11-05T14:52:10.583Z,2.73
2022-11-05T14:54:47.382Z,2.90
2022-11-05T14:57:35.216Z,3.43
2022-11-05T15:00:04.151Z,2.80
2022-11-05T15:02:38.670Z,3.17
2022-11-05T15:05:31.366Z,2.13
2022-11-05T15:08:20.338Z,2.83
2022-11-05T15:10:49.142Z,2.30
2022-11-05T15:13:30.806Z,2.47
2022-11-05T15:15:58.235Z,3.23
2022-11-05T15:18:33.747Z,2.70
2022-11-05T15:21:04.877Z,2.30
2022-11-05T15:23:42.756Z,2.53
2022-11-05T15:26:12.721Z,2.60
2022-11-05T15:28:50.977Z,2.83
2022-11-05T15:31:47.942Z,4.60
2022-11-05T15:34:24.777Z,2.20
2022-11-05T15:37:00.112Z,2.47
2022-11-05T15:39:54.187Z,2.10
2022-11-05T15:42:24.137Z,2.00
2022-11-05T15:44:56.311Z,3.73
2022-11-05T15:47:27.397Z,2.50
2022-11-05T15:50:14.784Z,2.40
2022-11-05T15:52:50.141Z,2.97
2022-11-05T15:55:16.937Z,2.87
2022-11-05T15:57:51.208Z,2.53
2022-11-05T16:00:21.826Z,2.50
2022-11-05T16:03:29.329Z,2.33
2022-11-05T16:05:56.907Z,3.27
2022-11-05T16:08:29.927Z,3.40
2022-11-05T16:10:59.467Z,3.33
2022-11-05T16:13:37.802Z,4.17
2022-11-05T16:16:24.766Z,4.43
2022-11-05T16:18:52.795Z,3.60
2022-11-05T16:21:23.234Z,4.13
2022-11-05T16:23:50.107Z,2.27
2022-11-05T16:27:01.961Z,4.07
2022-11-05T16:29:40.406Z,3.10
2022-11-05T16:32:19.706Z,3.50
2022-11-05T16:34:50.503Z,3.70
2022-11-05T16:37:20.539Z,5.30
2022-11-05T16:39:47.284Z,3.10
2022-11-05T16:42:23.260Z,3.43
2022-11-05T16:44:57.582Z,3.47
2022-11-05T16:47:26.465Z,3.20
2022-11-05T16:49:53.360Z,5.80
2022-11-05T16:52:20.016Z,4.30
2022-11-05T16:54:46.841Z,5.20
2022-11-05T16:57:29.502Z,4.50
2022-11-05T16:59:58.354Z,4.20
2022-11-05T17:02:25.855Z,3.93
2022-11-05T17:04:53.527Z,4.13
2022-11-05T17:07:20.526Z,4.87
2022-11-05T17:09:47.229Z,5.27
2022-11-05T17:12:14.864Z,4.30
2022-11-05T17:14:41.697Z,4.30
2022-11-05T17:17:08.415Z,4.80
2022-11-05T17:19:35.151Z,4.37
2022-11-05T17:22:02.030Z,4.70
2022-11-05T17:24:28.950Z,7.53
2022-11-05T17:26:55.603Z,7.73
2022-11-05T17:29:22.390Z,6.90
2022-11-05T17:31:49.150Z,6.63
2022-11-05T17:34:15.970Z,6.87
2022-11-05T17:36:42.920Z,6.10
2022-11-05T17:39:11.055Z,8.63
2022-11-05T17:41:37.705Z,7.27
2022-11-05T17:44:04.514Z,7.40
2022-11-05T17:46:31.319Z,6.67
2022-11-05T17:48:57.963Z,6.53
2022-11-05T17:51:24.933Z,6.73
2022-11-05T17:53:51.747Z,6.13
2022-11-05T17:56:32.118Z,5.70
2022-11-05T17:59:01.510Z,6.23
2022-11-05T18:01:31.556Z,6.33
2022-11-05T18:04:01.266Z,5.73
2022-11-05T18:06:32.139Z,4.35
2022-11-05T18:08:58.765Z,4.90
2022-11-05T18:11:25.444Z,5.43
2022-11-05T18:13:52.181Z,4.43
2022-11-05T18:16:18.809Z,4.27
2022-11-05T18:18:45.535Z,3.57
2022-11-05T18:21:12.782Z,6.03
2022-11-05T18:23:39.423Z,4.90
2022-11-05T18:26:14.380Z,6.50
2022-11-05T18:28:42.144Z,3.90
2022-11-05T18:31:18.485Z,4.60
2022-11-05T18:33:45.486Z,4.90
2022-11-05T18:36:24.115Z,5.30
2022-11-05T18:38:50.988Z,4.50
2022-11-05T18:41:18.751Z,4.10
2022-11-05T18:43:45.758Z,4.97
2022-11-05T18:46:29.334Z,3.53
2022-11-05T18:49:00.420Z,4.00
2022-11-05T18:51:27.747Z,3.00
2022-11-05T18:53:55.197Z,3.80
2022-11-05T18:56:22.311Z,4.80
2022-11-05T18:58:49.850Z,2.77
2022-11-05T19:01:20.075Z,3.43
2022-11-05T19:03:47.707Z,4.70
2022-11-05T19:06:15.093Z,5.30
2022-11-05T19:08:41.766Z,5.33
2022-11-05T19:11:10.835Z,9.20
2022-11-05T19:13:38.034Z,3.87
2022-11-05T19:16:10.192Z,5.00
2022-11-05T19:18:37.499Z,4.00
2022-11-05T19:21:12.185Z,4.10
2022-11-05T19:23:39.673Z,5.50
2022-11-05T19:26:12.735Z,5.43
2022-11-05T19:28:40.706Z,4.40
2022-11-05T19:31:08.438Z,3.37
2022-11-05T19:33:35.128Z,5.00
2022-11-05T19:36:06.389Z,7.03
2022-11-05T19:38:33.264Z,9.37
2022-11-05T19:41:04.429Z,6.20
2022-11-05T19:43:31.336Z,5.77
2022-11-05T19:45:58.108Z,5.17
2022-11-05T19:48:25.440Z,5.47
2022-11-05T19:50:52.385Z,4.80
2022-11-05T19:53:19.223Z,4.90
2022-11-05T19:55:46.004Z,3.90
2022-11-05T19:58:13.028Z,5.07
2022-11-05T20:00:39.812Z,4.30
2022-11-05T20:03:06.654Z,4.63
2022-11-05T20:05:34.142Z,4.17
2022-11-05T20:08:00.933Z,5.03
2022-11-05T20:10:27.760Z,6.00
2022-11-05T20:12:54.606Z,6.33
2022-11-05T20:15:21.368Z,6.70
2022-11-05T20:17:52.620Z,7.20
2022-11-05T20:20:19.820Z,7.90
2022-11-05T20:22:46.552Z,8.67
2022-11-05T20:25:13.540Z,8.33
2022-11-05T20:27:40.704Z,6.37
2022-11-05T20:30:08.074Z,4.07
2022-11-05T20:32:34.782Z,4.10
2022-11-05T20:35:01.767Z,4.53
2022-11-05T20:37:28.449Z,4.90
2022-11-05T20:39:55.224Z,5.03
2022-11-05T20:42:22.028Z,4.57
2022-11-05T20:44:48.638Z,4.27
2022-11-05T20:47:16.081Z,3.50
2022-11-05T20:49:42.997Z,3.30
2022-11-05T20:52:09.644Z,4.27
2022-11-05T20:54:36.377Z,2.67
2022-11-05T20:57:03.319Z,3.57
2022-11-05T20:59:30.319Z,2.37
2022-11-05T21:01:57.048Z,3.20
2022-11-05T21:04:24.296Z,2.43
2022-11-05T21:06:51.022Z,3.83
2022-11-05T21:09:17.720Z,2.80
2022-11-05T21:12:03.014Z,2.40
2022-11-05T21:14:29.658Z,4.37
2022-11-05T21:16:56.398Z,5.93
2022-11-05T21:19:24.146Z,4.00
2022-11-05T21:21:50.858Z,3.50
2022-11-05T21:24:17.721Z,2.63
2022-11-05T21:26:44.515Z,2.97
2022-11-05T21:29:12.515Z,3.40
2022-11-05T21:31:39.992Z,3.13
2022-11-05T21:34:07.171Z,2.83
2022-11-05T21:36:33.875Z,2.20
2022-11-05T21:39:00.573Z,2.17
2022-11-05T21:41:27.795Z,2.60
2022-11-05T21:43:54.501Z,3.30
2022-11-05T21:46:21.538Z,3.13
2022-11-05T21:48:48.376Z,3.47
2022-11-05T21:51:35.291Z,3.03
2022-11-05T21:54:20.789Z,2.50
2022-11-05T21:57:10.677Z,3.73
2022-11-05T21:59:51.600Z,3.67
2022-11-05T22:02:22.023Z,6.20
2022-11-05T22:04:53.846Z,2.93
2022-11-05T22:07:23.263Z,3.20
2022-11-05T22:09:50.292Z,4.40
2022-11-05T22:12:17.189Z,3.73
2022-11-05T22:14:44.149Z,3.20
2022-11-05T22:17:12.380Z,2.97
2022-11-05T22:19:39.315Z,4.83
2022-11-05T22:22:06.660Z,3.23
2022-11-05T22:24:34.789Z,3.10
2022-11-05T22:27:04.734Z,3.03
2022-11-05T22:29:31.727Z,2.70
2022-11-05T22:31:58.447Z,2.83
2022-11-05T22:34:26.038Z,2.33
2022-11-05T22:36:52.813Z,2.77
2022-11-05T22:39:20.114Z,3.17
2022-11-05T22:41:47.122Z,3.67
2022-11-05T22:44:14.402Z,4.50
2022-11-05T22:46:41.913Z,3.07
2022-11-05T22:49:09.104Z,3.03
2022-11-05T22:51:37.915Z,3.20
2022-11-05T22:54:05.518Z,2.90
2022-11-05T22:56:35.532Z,2.80
2022-11-05T22:59:03.132Z,3.00
2022-11-05T23:01:30.138Z,2.23
2022-11-05T23:03:58.675Z,2.50
2022-11-05T23:06:49.757Z,2.90
2022-11-05T23:09:53.865Z,2.20
2022-11-05T23:12:20.461Z,3.27
2022-11-05T23:14:47.305Z,2.40
2022-11-05T23:17:32.846Z,2.53
2022-11-05T23:20:18.436Z,2.77
2022-11-05T23:23:04.127Z,2.00
2022-11-05T23:25:31.361Z,2.47
2022-11-05T23:27:58.031Z,2.83
2022-11-05T23:30:26.813Z,3.03
2022-11-05T23:32:54.080Z,2.73
2022-11-05T23:35:39.602Z,2.27
2022-11-05T23:38:25.040Z,3.07
2022-11-05T23:41:10.760Z,2.90
2022-11-05T23:43:56.267Z,2.77
2022-11-05T23:46:41.972Z,2.50
2022-11-05T23:49:08.733Z,2.53
2022-11-05T23:51:35.423Z,2.70
2022-11-05T23:54:02.248Z,2.23
2022-11-05T23:56:30.789Z,2.40
2022-11-05T23:58:57.704Z,2.87
